createdAt,value
2017-05-21T17:24:29.427Z,23.30
2017-05-21T17:26:57.671Z,23.40
2017-05-21T17:29:25.942Z,23.80
2017-05-21T17:31:54.223Z,23.40
2017-05-21T17:34:22.508Z,22.40
2017-05-21T17:36:50.784Z,21.70
2017-05-21T17:39:18.328Z,21.70
2017-05-21T17:41:46.589Z,21.10
2017-05-21T17:44:14.876Z,20.90
2017-05-21T17:46:43.158Z,20.70
2017-05-21T17:49:12.210Z,20.60
2017-05-21T17:51:40.679Z,20.50
2017-05-21T17:56:38.935Z,20.30
2017-05-21T17:59:06.931Z,20.20
2017-05-21T18:01:35.856Z,20.20
2017-05-21T18:04:04.777Z,20.20
2017-05-21T18:06:32.932Z,20.20
2017-05-21T18:09:02.751Z,20.00
2017-05-21T18:11:30.852Z,20.00
2017-05-21T18:14:00.705Z,20.00
2017-05-21T18:16:29.507Z,20.00
2017-05-21T18:18:58.063Z,19.90
2017-05-21T18:21:26.480Z,19.90
2017-05-21T18:23:54.149Z,19.90
2017-05-21T18:26:22.644Z,19.90
2017-05-21T18:28:51.066Z,19.80
2017-05-21T18:31:19.082Z,19.80
2017-05-21T18:33:52.466Z,19.80
2017-05-21T18:36:21.236Z,19.70
2017-05-21T18:38:49.663Z,19.60
2017-05-21T18:41:19.320Z,19.60
2017-05-21T18:43:51.250Z,19.60
2017-05-21T18:46:18.847Z,19.60
2017-05-21T18:48:47.472Z,19.60
2017-05-21T18:51:15.751Z,19.50
2017-05-21T18:53:43.456Z,19.50
2017-05-21T18:56:11.963Z,19.50
2017-05-21T18:58:40.251Z,19.30
2017-05-21T19:01:09.487Z,19.30
2017-05-21T19:03:37.767Z,19.20
2017-05-21T19:06:05.267Z,19.10
2017-05-21T19:08:34.361Z,19.10
2017-05-21T19:11:02.474Z,19.10
2017-05-21T19:13:30.084Z,19.10
2017-05-21T19:15:58.239Z,19.00
2017-05-21T19:18:26.560Z,18.90
2017-05-21T19:20:54.067Z,18.90
2017-05-21T19:23:22.339Z,18.80
2017-05-21T19:25:50.604Z,18.70
2017-05-21T19:28:19.472Z,18.70
2017-05-21T19:30:46.988Z,18.70
2017-05-21T19:33:14.515Z,18.70
2017-05-21T19:35:42.027Z,18.60
2017-05-21T19:38:09.522Z,18.50
2017-05-21T19:40:37.811Z,18.60
2017-05-21T19:43:05.313Z,18.50
2017-05-21T19:45:33.617Z,18.40
2017-05-21T19:48:01.168Z,18.40
2017-05-21T19:50:28.706Z,18.40
2017-05-21T19:52:56.979Z,18.30
2017-05-21T19:55:25.471Z,18.30
2017-05-21T19:57:53.776Z,18.30
2017-05-21T20:00:21.342Z,18.30
2017-05-21T20:02:48.882Z,18.10
2017-05-21T20:05:16.414Z,18.10
2017-05-21T20:07:44.667Z,17.80
2017-05-21T20:10:12.179Z,17.80
2017-05-21T20:12:39.834Z,17.70
2017-05-21T20:15:09.281Z,17.60
2017-05-21T20:17:37.580Z,17.50
2017-05-21T20:20:05.188Z,17.50
2017-05-21T20:22:33.475Z,17.60
2017-05-21T20:25:00.990Z,17.60
2017-05-21T20:27:28.855Z,17.60
2017-05-21T20:29:57.111Z,17.30
2017-05-21T20:32:24.627Z,17.30
2017-05-21T20:34:52.886Z,17.20
2017-05-21T20:37:20.491Z,17.20
2017-05-21T20:39:48.764Z,17.10
2017-05-21T20:42:17.072Z,17.10
2017-05-21T20:44:44.614Z,17.10
2017-05-21T20:47:13.362Z,17.10
2017-05-21T20:49:40.877Z,17.10
2017-05-21T20:52:09.152Z,17.00
2017-05-21T20:54:37.399Z,17.00
2017-05-21T20:57:04.931Z,17.00
2017-05-21T20:59:32.427Z,16.90
2017-05-21T21:02:00.707Z,16.70
2017-05-21T21:04:29.083Z,16.70
2017-05-21T21:06:56.577Z,16.70
2017-05-21T21:09:24.104Z,16.70
2017-05-21T21:11:52.415Z,16.50
2017-05-21T21:14:20.715Z,16.40
2017-05-21T21:16:49.001Z,16.40
2017-05-21T21:19:17.294Z,16.30
2017-05-21T21:21:45.599Z,16.30
2017-05-21T21:24:13.892Z,16.20
2017-05-21T21:26:42.197Z,16.10
2017-05-21T21:29:10.489Z,16.10
2017-05-21T21:31:38.783Z,16.10
2017-05-21T21:34:06.286Z,16.00
2017-05-21T21:36:34.572Z,16.10
2017-05-21T21:39:02.883Z,16.00
2017-05-21T21:41:31.177Z,15.90
2017-05-21T21:43:59.438Z,15.80
2017-05-21T21:46:27.712Z,15.70
2017-05-21T21:48:55.989Z,15.90
2017-05-21T21:51:24.291Z,16.00
2017-05-21T21:53:52.543Z,16.00
2017-05-21T21:56:20.888Z,15.90
2017-05-21T21:58:49.156Z,15.80
2017-05-21T22:01:17.485Z,15.90
2017-05-21T22:03:45.759Z,15.90
2017-05-21T22:06:14.057Z,15.80
2017-05-21T22:08:42.344Z,15.80
2017-05-21T22:11:10.633Z,15.70
2017-05-21T22:13:38.905Z,15.70
2017-05-21T22:16:06.956Z,15.60
2017-05-21T22:18:37.103Z,15.70
2017-05-21T22:21:07.557Z,15.70
2017-05-21T22:23:36.708Z,15.60
2017-05-21T22:28:39.280Z,15.60
2017-05-21T22:31:07.652Z,15.60
2017-05-21T22:33:37.513Z,15.60
2017-05-21T22:36:06.597Z,15.60
2017-05-21T22:38:34.949Z,15.60
2017-05-21T22:41:02.746Z,15.70
2017-05-21T22:43:31.978Z,15.70
2017-05-21T22:46:02.519Z,15.60
2017-05-21T22:48:32.593Z,15.50
2017-05-21T22:51:00.889Z,15.60
2017-05-21T22:53:29.967Z,15.50
2017-05-21T22:55:58.649Z,15.50
2017-05-21T22:58:27.172Z,15.50
2017-05-21T23:00:55.820Z,15.50
2017-05-21T23:03:24.133Z,15.50
2017-05-21T23:05:53.187Z,15.40
2017-05-21T23:08:22.263Z,15.30
2017-05-21T23:10:50.608Z,15.30
2017-05-21T23:13:18.952Z,15.30
2017-05-21T23:15:47.577Z,15.30
2017-05-21T23:18:15.886Z,15.30
2017-05-21T23:20:44.421Z,15.20
2017-05-21T23:23:13.546Z,15.20
2017-05-21T23:25:41.835Z,15.20
2017-05-21T23:28:10.224Z,15.20
2017-05-21T23:30:38.543Z,15.20
2017-05-21T23:33:07.089Z,15.10
2017-05-21T23:35:34.615Z,15.10
2017-05-21T23:38:02.352Z,15.20
2017-05-21T23:40:31.011Z,15.20
2017-05-21T23:42:59.316Z,15.20
2017-05-21T23:45:27.454Z,15.20
2017-05-21T23:47:54.964Z,15.20
2017-05-21T23:50:23.277Z,15.20
2017-05-21T23:52:50.761Z,15.20
2017-05-21T23:55:19.305Z,15.30
2017-05-21T23:57:47.107Z,15.30
